Time;durP1;ratioP1;P1;durP2;ratioP2;P2;SDS_P1;SDS_P2;PMS_P1;PMS_P2;Temp;Humidity;BMP_temperature;BMP_pressure;BME280_temperature;BME280_humidity;BME280_pressure;Samples;Min_cycle;Max_cycle;Signal;HPM_P1;HPM_P2
2022/09/29 00:05:05;;;;;;;4.13;3.37;;;9.70;1.00;;;;;;10483233;28;20214;-83
2022/09/29 00:10:26;;;;;;;4.93;4.07;;;9.70;1.00;;;;;;10468844;28;20453;-82
2022/09/29 00:15:56;;;;;;;4.63;3.50;;;9.70;1.00;;;;;;10468716;28;20377;-83
2022/09/29 00:21:21;;;;;;;7.37;4.20;;;9.70;1.00;;;;;;10469245;28;20195;-82
2022/09/29 00:26:45;;;;;;;5.50;3.53;;;9.70;1.00;;;;;;10549268;28;20441;-82
2022/09/29 00:32:07;;;;;;;4.47;3.10;;;9.70;1.00;;;;;;10565926;28;20198;-82
2022/09/29 00:37:28;;;;;;;4.43;3.50;;;9.70;1.00;;;;;;10537910;28;20481;-82
2022/09/29 00:42:50;;;;;;;5.37;3.60;;;9.70;1.00;;;;;;10520185;28;20428;-83
2022/09/29 00:48:16;;;;;;;3.67;3.30;;;9.50;1.00;;;;;;10489095;28;20599;-83
2022/09/29 00:53:38;;;;;;;5.80;3.87;;;9.50;1.00;;;;;;10498233;28;20206;-82
2022/09/29 00:59:04;;;;;;;4.10;2.90;;;9.50;1.00;;;;;;10466882;28;20397;-82
2022/09/29 01:04:25;;;;;;;5.90;3.47;;;9.50;1.00;;;;;;10490156;28;20188;-81
2022/09/29 01:09:49;;;;;;;3.93;3.00;;;9.50;1.00;;;;;;10507821;28;20225;-81
2022/09/29 01:15:13;;;;;;;3.00;2.70;;;9.50;7.10;;;;;;10507896;28;20207;-81
2022/09/29 01:20:49;;;;;;;2.43;2.23;;;9.50;4.10;;;;;;10507720;28;20229;-83
2022/09/29 01:26:32;;;;;;;3.10;2.60;;;9.40;1.00;;;;;;10527253;28;20381;-83
2022/09/29 01:32:03;;;;;;;5.23;2.70;;;9.40;1.00;;;;;;10549241;28;20215;-83
2022/09/29 01:37:30;;;;;;;4.90;3.40;;;9.40;1.00;;;;;;10495564;28;20200;-83
2022/09/29 01:43:04;;;;;;;3.87;3.47;;;9.40;11.40;;;;;;10509865;28;20211;-82
2022/09/29 01:48:30;;;;;;;6.13;4.17;;;9.50;1.00;;;;;;10493995;28;20426;-82
2022/09/29 01:53:55;;;;;;;6.83;4.50;;;9.50;1.00;;;;;;10506350;28;20209;-81
2022/09/29 01:59:31;;;;;;;4.80;4.20;;;9.40;1.00;;;;;;10505983;28;20251;-81
2022/09/29 02:05:00;;;;;;;8.77;5.63;;;9.30;8.40;;;;;;10491315;28;20195;-81
2022/09/29 02:10:28;;;;;;;6.50;4.57;;;9.30;11.60;;;;;;10521387;28;20225;-83
2022/09/29 02:15:54;;;;;;;6.57;4.53;;;9.20;15.80;;;;;;10521577;28;20193;-81
2022/09/29 02:21:15;;;;;;;5.33;3.93;;;9.10;4.50;;;;;;10529908;28;20255;-81
2022/09/29 02:26:36;;;;;;;5.67;4.40;;;9.10;7.00;;;;;;10543126;28;20232;-83
2022/09/29 02:32:01;;;;;;;8.23;5.90;;;;;;;;;;10534572;28;20369;-81
2022/09/29 02:37:38;;;;;;;9.47;6.80;;;8.80;7.80;;;;;;10491211;28;20194;-83
2022/09/29 02:43:32;;;;;;;9.80;6.83;;;8.70;1.00;;;;;;10507647;28;20204;-83
2022/09/29 02:49:36;;;;;;;10.13;6.70;;;8.80;3.50;;;;;;10463308;28;20237;-82
2022/09/29 02:55:00;;;;;;;8.03;6.13;;;8.60;1.00;;;;;;10450509;28;20217;-82
2022/09/29 03:00:22;;;;;;;8.97;6.80;;;8.60;1.00;;;;;;10468480;28;20488;-83
2022/09/29 03:05:43;;;;;;;11.27;6.30;;;8.50;16.80;;;;;;10518706;28;20189;-80
2022/09/29 03:11:04;;;;;;;10.47;6.57;;;8.60;38.90;;;;;;10504147;28;20246;-82
2022/09/29 03:16:52;;;;;;;9.70;6.13;;;8.50;1.00;;;;;;10507602;28;20396;-81
2022/09/29 03:22:13;;;;;;;7.73;5.63;;;8.50;22.40;;;;;;10503680;28;20204;-81
2022/09/29 03:27:37;;;;;;;9.37;6.37;;;8.50;24.90;;;;;;10550825;28;20243;-80
2022/09/29 03:32:58;;;;;;;7.20;5.90;;;8.50;35.70;;;;;;10534383;28;20187;-81
2022/09/29 03:38:20;;;;;;;8.43;5.80;;;;;;;;;;10513435;28;20250;-82
2022/09/29 03:43:41;;;;;;;9.23;6.63;;;8.20;4.60;;;;;;10487966;28;20206;-81
2022/09/29 03:49:03;;;;;;;9.43;6.00;;;8.20;9.70;;;;;;10483750;28;20225;-83
2022/09/29 03:54:26;;;;;;;8.13;6.43;;;8.20;14.40;;;;;;10484069;28;20197;-81
2022/09/29 03:59:48;;;;;;;8.47;6.50;;;8.30;78.10;;;;;;10497609;28;20221;-80
2022/09/29 04:05:09;;;;;;;13.00;8.43;;;8.40;53.20;;;;;;10483524;28;20196;-81
2022/09/29 04:10:33;;;;;;;10.30;8.30;;;8.50;99.90;;;;;;10483552;28;20274;-82
2022/09/29 04:16:04;;;;;;;11.40;8.03;;;8.60;99.90;;;;;;10496251;28;20242;-82
2022/09/29 04:21:27;;;;;;;13.83;8.83;;;8.50;99.90;;;;;;10509808;28;20205;-80
2022/09/29 04:26:48;;;;;;;12.93;9.30;;;8.50;97.50;;;;;;10563502;28;20388;-80
2022/09/29 04:32:09;;;;;;;17.60;11.40;;;8.60;99.90;;;;;;10538496;28;20276;-80
2022/09/29 04:37:31;;;;;;;16.77;10.90;;;8.70;99.90;;;;;;10552089;28;20222;-81
2022/09/29 04:42:52;;;;;;;16.93;12.50;;;8.80;99.90;;;;;;10482109;28;20201;-81
2022/09/29 04:48:14;;;;;;;13.70;10.00;;;8.80;99.90;;;;;;10467516;28;20484;-81
2022/09/29 04:53:36;;;;;;;12.57;9.47;;;8.90;99.90;;;;;;10522131;28;20270;-82
2022/09/29 04:58:57;;;;;;;19.93;13.13;;;8.90;99.90;;;;;;10522442;28;20200;-81
2022/09/29 05:04:19;;;;;;;23.53;15.07;;;8.90;99.90;;;;;;10494198;28;20202;-82
2022/09/29 05:09:40;;;;;;;20.23;12.63;;;9.00;99.90;;;;;;10521477;28;20336;-82
2022/09/29 05:15:03;;;;;;;23.67;14.37;;;9.00;99.90;;;;;;10522186;28;20201;-83
2022/09/29 05:20:25;;;;;;;22.20;13.67;;;8.90;99.90;;;;;;10493571;28;20245;-83
2022/09/29 05:25:48;;;;;;;23.70;14.23;;;9.00;99.90;;;;;;10513217;28;20564;-83
2022/09/29 05:31:09;;;;;;;25.70;17.03;;;9.10;99.90;;;;;;10563183;28;20226;-81
2022/09/29 05:36:31;;;;;;;19.67;12.50;;;9.20;99.90;;;;;;10529811;28;20187;-81
2022/09/29 05:41:52;;;;;;;13.80;9.80;;;9.20;99.90;;;;;;10498161;28;20527;-83
2022/09/29 05:47:16;;;;;;;11.20;9.33;;;9.30;93.30;;;;;;10464838;28;20624;-81
2022/09/29 05:52:38;;;;;;;11.27;8.20;;;9.30;85.00;;;;;;10513269;28;20198;-82
2022/09/29 05:58:00;;;;;;;15.27;10.23;;;9.30;76.40;;;;;;10464539;28;20253;-83
2022/09/29 06:03:21;;;;;;;14.30;10.43;;;9.40;88.60;;;;;;10465294;28;20211;-83
2022/09/29 06:08:44;;;;;;;15.17;9.60;;;9.50;62.50;;;;;;10522269;28;20418;-83
2022/09/29 06:14:05;;;;;;;8.30;7.50;;;9.50;12.40;;;;;;10505465;28;20204;-84
2022/09/29 06:19:26;;;;;;;9.53;7.93;;;9.60;1.00;;;;;;10505330;28;20220;-82
2022/09/29 06:24:47;;;;;;;8.87;7.43;;;9.60;1.00;;;;;;10527760;28;20211;-80
2022/09/29 06:30:11;;;;;;;8.67;7.10;;;9.60;1.00;;;;;;10546803;28;20228;-83
2022/09/29 06:41:13;;;;;;;9.47;7.13;;;9.70;1.00;;;;;;10518921;28;20277;-84
2022/09/29 06:46:34;;;;;;;9.27;7.70;;;9.70;1.00;;;;;;10486151;28;20237;-81
2022/09/29 06:51:55;;;;;;;10.30;8.07;;;9.80;1.00;;;;;;10524999;28;20193;-81
2022/09/29 06:57:17;;;;;;;9.13;6.80;;;9.80;1.00;;;;;;10504785;28;20208;-83
2022/09/29 07:02:44;;;;;;;10.80;7.37;;;9.90;1.00;;;;;;10508202;28;20444;-83
2022/09/29 07:08:06;;;;;;;8.60;6.70;;;9.90;1.00;;;;;;10509366;28;20224;-83
2022/09/29 07:13:28;;;;;;;7.03;5.40;;;10.00;1.00;;;;;;10513142;28;20196;-84
2022/09/29 07:18:50;;;;;;;9.20;5.93;;;10.10;1.00;;;;;;10512665;28;20276;-83
2022/09/29 07:24:11;;;;;;;7.80;6.57;;;10.00;1.00;;;;;;10515403;28;20199;-84
2022/09/29 07:29:34;;;;;;;9.90;7.93;;;10.00;1.00;;;;;;10540000;28;20268;-83
2022/09/29 07:34:55;;;;;;;11.13;8.13;;;9.90;1.00;;;;;;10426816;28;20453;-83
2022/09/29 07:40:16;;;;;;;12.73;8.87;;;10.00;1.00;;;;;;10457891;28;20228;-81
2022/09/29 07:45:37;;;;;;;10.17;8.20;;;9.80;1.00;;;;;;10465585;28;20246;-82
2022/09/29 07:51:09;;;;;;;11.80;8.30;;;9.90;1.00;;;;;;10456938;28;20875;-83
2022/09/29 07:56:31;;;;;;;9.63;7.77;;;9.90;1.00;;;;;;10451869;28;20200;-84
2022/09/29 08:01:53;;;;;;;9.60;7.47;;;9.90;1.00;;;;;;10463824;28;20356;-83
2022/09/29 08:07:14;;;;;;;12.63;8.47;;;9.90;1.00;;;;;;10479089;28;20227;-84
2022/09/29 08:12:35;;;;;;;11.73;8.60;;;10.00;1.00;;;;;;10463492;28;20210;-84
2022/09/29 08:18:02;;;;;;;13.53;10.00;;;10.00;1.00;;;;;;10468546;28;20194;-83
2022/09/29 08:23:24;;;;;;;11.27;8.80;;;10.10;1.00;;;;;;10484077;28;20205;-84
2022/09/29 08:28:46;;;;;;;11.07;8.80;;;10.10;1.00;;;;;;10473686;28;20436;-84
2022/09/29 08:34:10;;;;;;;11.53;9.40;;;10.10;1.00;;;;;;10447808;28;20214;-81
2022/09/29 08:39:34;;;;;;;14.50;10.33;;;10.20;1.00;;;;;;10463363;28;20201;-84
2022/09/29 08:45:03;;;;;;;16.37;12.60;;;10.30;1.00;;;;;;10460188;28;20266;-87
2022/09/29 08:50:36;;;;;;;11.57;9.87;;;10.40;1.00;;;;;;10437690;28;20475;-82
2022/09/29 08:56:15;;;;;;;16.70;10.10;;;10.50;1.00;;;;;;10475669;28;20280;-86
2022/09/29 09:02:27;;;;;;;21.90;15.23;;;10.50;1.00;;;;;;10472192;28;20493;-82
2022/09/29 09:08:27;;;;;;;17.07;13.43;;;10.60;1.00;;;;;;10477639;28;20530;-82
2022/09/29 09:13:51;;;;;;;11.47;9.63;;;10.60;1.00;;;;;;10349744;28;20259;-83
2022/09/29 09:19:38;;;;;;;13.47;10.97;;;10.60;1.00;;;;;;10372005;28;20227;-81
2022/09/29 09:25:31;;;;;;;14.20;11.27;;;10.60;99.90;;;;;;10348455;28;20205;-83
2022/09/29 09:31:08;;;;;;;18.93;12.30;;;10.60;1.00;;;;;;10349422;28;20465;-84
2022/09/29 09:36:35;;;;;;;12.57;10.13;;;10.80;99.90;;;;;;10308839;28;20248;-90
2022/09/29 09:41:59;;;;;;;9.57;7.87;;;11.10;99.90;;;;;;10316793;28;20209;-85
2022/09/29 09:47:23;;;;;;;9.77;6.97;;;12.20;1.00;;;;;;10356792;28;20319;-85
2022/09/29 09:52:54;;;;;;;12.63;7.37;;;12.40;1.00;;;;;;10460132;28;20224;-86
2022/09/29 09:58:34;;;;;;;9.13;6.53;;;12.60;99.90;;;;;;10461010;28;20208;-85
2022/09/29 10:03:58;;;;;;;7.80;6.27;;;12.90;99.90;;;;;;10488955;28;20188;-83
2022/09/29 10:09:19;;;;;;;8.20;6.20;;;12.80;87.20;;;;;;10447639;28;20478;-87
2022/09/29 10:15:04;;;;;;;6.83;6.03;;;12.80;17.40;;;;;;10472676;28;20211;-80
2022/09/29 10:20:36;;;;;;;8.43;6.40;;;12.80;1.00;;;;;;10461867;28;20333;-82
2022/09/29 10:26:06;;;;;;;7.73;6.10;;;13.20;1.00;;;;;;10473323;28;20195;-80
2022/09/29 10:31:33;;;;;;;8.43;6.23;;;13.40;99.90;;;;;;10433744;28;20308;-82
2022/09/29 10:37:01;;;;;;;7.10;5.63;;;13.40;99.90;;;;;;10444692;28;20209;-81
2022/09/29 10:42:26;;;;;;;10.03;6.63;;;13.40;1.00;;;;;;10473836;28;20372;-82
2022/09/29 10:47:58;;;;;;;28.00;16.57;;;13.70;1.00;;;;;;10458402;28;20254;-80
2022/09/29 10:53:34;;;;;;;6.32;4.72;;;14.60;99.90;;;;;;10487460;28;20204;-82
2022/09/29 10:58:59;;;;;;;8.63;5.07;;;15.30;99.90;;;;;;10465409;28;20178;-81
2022/09/29 11:04:45;;;;;;;3.83;3.15;;;16.30;99.90;;;;;;10464221;28;20207;-84
2022/09/29 11:10:26;;;;;;;4.43;3.90;;;;;;;;;;10425506;28;20467;-93
2022/09/29 11:15:48;;;;;;;5.07;3.45;;;;;;;;;;10474474;28;20200;-84
2022/09/29 11:21:20;;;;;;;5.05;3.85;;;;;;;;;;10472834;28;20290;-84
2022/09/29 11:27:00;;;;;;;4.03;3.35;;;;;;;;;;10461253;28;20493;-87
2022/09/29 11:32:48;;;;;;;4.35;3.60;;;;;;;;;;10459570;28;20240;-81
2022/09/29 11:38:19;;;;;;;9.85;5.78;;;17.00;63.40;;;;;;10461833;28;20193;-87
2022/09/29 11:43:44;;;;;;;5.57;4.35;;;16.90;40.90;;;;;;10457853;28;20226;-82
2022/09/29 11:49:23;;;;;;;5.22;3.65;;;16.40;95.10;;;;;;10475239;28;20249;-88
2022/09/29 11:55:12;;;;;;;9.48;6.68;;;15.60;99.90;;;;;;10456190;28;20240;-84
2022/09/29 12:00:54;;;;;;;6.68;4.82;;;16.30;99.90;;;;;;10465886;28;20213;-83
2022/09/29 12:06:34;;;;;;;10.27;6.05;;;17.10;99.90;;;;;;10468251;28;20209;-85
2022/09/29 12:12:28;;;;;;;4.95;3.25;;;16.40;99.90;;;;;;10468961;28;20225;-88
2022/09/29 12:17:56;;;;;;;7.95;5.55;;;17.10;99.90;;;;;;10451373;28;20252;-88
2022/09/29 12:23:21;;;;;;;5.75;4.00;;;;;;;;;;10464558;28;20279;-81
2022/09/29 12:29:26;;;;;;;4.45;2.83;;;19.20;1.00;;;;;;10478761;28;20230;-85
2022/09/29 12:34:58;;;;;;;3.22;2.50;;;19.70;1.00;;;;;;10461180;28;20507;-81
2022/09/29 12:40:31;;;;;;;4.82;3.40;;;20.30;1.00;;;;;;10475768;28;20263;-87
2022/09/29 12:46:10;;;;;;;5.20;3.60;;;20.80;1.00;;;;;;10430163;28;20240;-82
2022/09/29 12:51:50;;;;;;;8.02;4.88;;;20.40;99.90;;;;;;10429753;28;20246;-84
2022/09/29 12:57:15;;;;;;;9.88;5.30;;;20.00;99.90;;;;;;10444421;28;20430;-84
2022/09/29 13:02:45;;;;;;;14.18;8.40;;;20.20;99.90;;;;;;10447340;28;20208;-82
2022/09/29 13:08:27;;;;;;;8.35;4.53;;;20.60;99.90;;;;;;10461914;28;20223;-89
2022/09/29 13:13:57;;;;;;;7.35;4.18;;;20.60;99.90;;;;;;10478668;28;20233;-87
2022/09/29 13:19:40;;;;;;;4.78;3.70;;;20.30;99.90;;;;;;10451801;28;20206;-84
2022/09/29 13:25:31;;;;;;;2.85;2.38;;;20.30;99.90;;;;;;10463562;28;20514;-83
2022/09/29 13:30:54;;;;;;;3.30;2.20;;;20.60;99.90;;;;;;10462336;28;20250;-88
2022/09/29 13:36:35;;;;;;;12.23;6.22;;;19.90;99.90;;;;;;10494620;28;20256;-86
2022/09/29 13:42:27;;;;;;;10.15;5.85;;;19.00;99.90;;;;;;10479143;28;20264;-88
2022/09/29 13:47:50;;;;;;;6.13;4.53;;;18.50;99.90;;;;;;10466683;28;20249;-90
2022/09/29 13:53:21;;;;;;;6.13;2.35;;;18.00;99.90;;;;;;10449639;28;20468;-84
2022/09/29 14:04:52;;;;;;;9.18;5.20;;;;;;;;;;10474609;28;20200;-89
2022/09/29 14:10:18;;;;;;;6.03;2.97;;;;;;;;;;10461767;28;20476;-85
2022/09/29 14:16:08;;;;;;;3.70;2.60;;;15.70;99.90;;;;;;10460775;28;20485;-83
2022/09/29 14:21:57;;;;;;;7.00;5.20;;;15.40;1.00;;;;;;10482188;28;20243;-84
2022/09/29 14:28:02;;;;;;;6.75;4.03;;;15.10;1.00;;;;;;10480855;28;20205;-86
2022/09/29 14:33:37;;;;;;;10.27;6.47;;;14.90;99.90;;;;;;10466517;28;20209;-90
2022/09/29 14:39:25;;;;;;;9.83;6.87;;;14.60;99.90;;;;;;10479170;28;20199;-80
2022/09/29 14:57:00;;;;;;;6.93;4.60;;;14.50;99.90;;;;;;10483123;28;20191;-85
2022/09/29 15:02:27;;;;;;;11.23;5.40;;;14.30;1.00;;;;;;10452752;28;20230;-79
2022/09/29 15:07:48;;;;;;;15.77;9.50;;;13.90;1.00;;;;;;10505620;28;20266;-86
2022/09/29 15:13:23;;;;;;;11.50;7.07;;;13.90;1.00;;;;;;10476021;28;20497;-80
2022/09/29 15:19:05;;;;;;;8.20;5.17;;;13.70;99.90;;;;;;10480168;28;20198;-84
2022/09/29 15:24:41;;;;;;;14.10;6.73;;;13.60;99.90;;;;;;10470145;28;20207;-80
2022/09/29 15:30:04;;;;;;;11.17;8.37;;;13.30;1.00;;;;;;10487697;28;20237;-79
2022/09/29 15:35:25;;;;;;;16.90;8.20;;;13.10;50.80;;;;;;10433373;28;20200;-82
2022/09/29 15:40:53;;;;;;;16.60;9.53;;;13.00;99.90;;;;;;10446746;28;20216;-84
2022/09/29 15:46:21;;;;;;;16.07;7.17;;;12.90;99.90;;;;;;10454316;28;20226;-86
2022/09/29 15:52:10;;;;;;;17.33;9.00;;;12.70;1.00;;;;;;10450963;28;20219;-84
2022/09/29 15:57:56;;;;;;;21.87;11.83;;;12.50;99.90;;;;;;10453843;28;20185;-86
2022/09/29 16:03:37;;;;;;;17.53;9.47;;;12.40;1.00;;;;;;10464204;28;20224;-87
2022/09/29 16:09:06;;;;;;;20.27;10.77;;;12.30;1.00;;;;;;10477045;28;20228;-86
2022/09/29 16:14:29;;;;;;;22.00;10.77;;;12.20;1.00;;;;;;10502517;28;20201;-86
2022/09/29 16:19:52;;;;;;;18.27;10.40;;;12.20;99.90;;;;;;10490868;28;20496;-87
2022/09/29 16:25:26;;;;;;;17.17;9.37;;;12.10;1.00;;;;;;10475634;28;20193;-86
2022/09/29 16:31:06;;;;;;;20.57;12.47;;;12.00;1.00;;;;;;10488762;28;20454;-87
2022/09/29 16:36:38;;;;;;;38.93;23.90;;;11.90;99.90;;;;;;10488245;28;20381;-84
2022/09/29 16:42:04;;;;;;;23.33;13.67;;;11.80;99.90;;;;;;10471805;28;20201;-80
2022/09/29 16:47:31;;;;;;;16.27;10.40;;;11.70;1.00;;;;;;10486066;28;20237;-78
2022/09/29 16:52:53;;;;;;;44.53;29.87;;;11.60;1.00;;;;;;10487365;28;20249;-79
2022/09/29 16:58:15;;;;;;;82.27;56.47;;;11.60;1.00;;;;;;10460950;28;20205;-79
2022/09/29 17:03:38;;;;;;;99.23;58.50;;;11.60;77.20;;;;;;10457272;28;20255;-79
2022/09/29 17:08:59;;;;;;;93.93;55.60;;;11.50;99.90;;;;;;10466945;28;20208;-81
2022/09/29 17:14:21;;;;;;;77.87;44.67;;;11.60;99.90;;;;;;10472481;28;20208;-79
2022/09/29 17:19:43;;;;;;;73.80;40.10;;;11.50;99.90;;;;;;10471600;28;20196;-78
2022/09/29 17:25:05;;;;;;;65.27;33.73;;;11.50;99.90;;;;;;10472401;28;20517;-79
2022/09/29 17:30:27;;;;;;;65.70;32.87;;;11.50;99.90;;;;;;10485628;28;20220;-79
2022/09/29 17:35:50;;;;;;;61.67;30.53;;;11.40;99.90;;;;;;10457444;28;20393;-79
2022/09/29 17:41:16;;;;;;;37.93;19.67;;;11.40;99.90;;;;;;10484459;28;20192;-78
2022/09/29 17:46:37;;;;;;;45.40;22.97;;;11.40;99.90;;;;;;10479512;28;20234;-81
2022/09/29 17:51:59;;;;;;;23.67;11.97;;;11.20;99.90;;;;;;10480347;28;20386;-80
2022/09/29 17:57:27;;;;;;;15.43;10.30;;;11.10;1.00;;;;;;10453737;28;20202;-80
2022/09/29 18:02:50;;;;;;;61.97;33.17;;;11.00;1.00;;;;;;10462572;28;20228;-78
2022/09/29 18:08:21;;;;;;;81.13;35.17;;;10.80;1.00;;;;;;10475499;28;20192;-81
2022/09/29 18:13:42;;;;;;;74.07;31.93;;;10.70;1.00;;;;;;10485994;28;20209;-84
2022/09/29 18:19:15;;;;;;;63.47;27.00;;;10.60;1.00;;;;;;10470869;28;20190;-80
2022/09/29 18:24:37;;;;;;;44.83;22.53;;;10.50;1.00;;;;;;10470255;28;20202;-78
2022/09/29 18:30:00;;;;;;;36.63;19.77;;;10.30;92.50;;;;;;10467141;28;20390;-78
2022/09/29 18:35:24;;;;;;;44.40;20.33;;;10.20;99.90;;;;;;10466662;28;20487;-84
2022/09/29 18:40:46;;;;;;;58.17;24.47;;;10.00;99.90;;;;;;10499577;28;20198;-80
2022/09/29 18:46:08;;;;;;;56.13;27.50;;;9.90;99.90;;;;;;10472171;28;20230;-80
2022/09/29 18:51:29;;;;;;;82.50;36.97;;;9.70;1.00;;;;;;10483808;28;20226;-82
2022/09/29 18:56:51;;;;;;;87.83;43.70;;;9.70;1.00;;;;;;10471297;28;20173;-79
2022/09/29 19:02:15;;;;;;;65.90;36.77;;;;;;;;;;10437078;28;20201;-80
2022/09/29 19:07:40;;;;;;;52.37;30.33;;;;;;;;;;10463969;28;20199;-80
2022/09/29 19:13:03;;;;;;;58.73;33.80;;;;;;;;;;10478436;28;20288;-80
2022/09/29 19:18:26;;;;;;;54.53;30.53;;;9.30;1.00;;;;;;10492005;28;20476;-81
2022/09/29 19:23:47;;;;;;;67.07;34.13;;;9.30;1.00;;;;;;10478805;28;20507;-80
2022/09/29 19:29:08;;;;;;;60.87;34.10;;;9.40;1.00;;;;;;10459657;28;20218;-81
2022/09/29 19:34:31;;;;;;;52.50;30.40;;;9.10;1.00;;;;;;10443175;28;20207;-79
2022/09/29 19:39:55;;;;;;;71.37;33.60;;;9.00;1.00;;;;;;10442014;28;20216;-79
2022/09/29 19:45:17;;;;;;;65.60;34.50;;;;;;;;;;10473721;28;20222;-85
2022/09/29 19:56:18;;;;;;;42.67;22.90;;;8.60;1.00;;;;;;10478054;28;20259;-82
2022/09/29 20:01:44;;;;;;;37.77;20.83;;;8.70;1.00;;;;;;10481109;28;20196;-80
2022/09/29 20:07:05;;;;;;;48.03;23.87;;;8.70;1.00;;;;;;10442322;28;20202;-79
2022/09/29 20:12:27;;;;;;;50.77;28.20;;;;;;;;;;10428649;28;20235;-83
2022/09/29 20:17:50;;;;;;;54.17;30.17;;;;;;;;;;10446348;28;20234;-86
2022/09/29 20:23:12;;;;;;;51.27;30.90;;;9.40;1.00;;;;;;10440417;28;20190;-78
2022/09/29 20:28:36;;;;;;;56.17;29.60;;;;;;;;;;10485616;28;20204;-81
2022/09/29 20:33:58;;;;;;;52.33;29.93;;;;;;;;;;10461980;28;20220;-82
2022/09/29 20:39:20;;;;;;;54.27;32.57;;;8.50;1.00;;;;;;10483894;28;20276;-80
2022/09/29 20:44:42;;;;;;;55.73;32.97;;;8.20;1.00;;;;;;10469295;28;20245;-79
2022/09/29 20:50:04;;;;;;;66.60;36.80;;;8.20;1.00;;;;;;10455636;28;20418;-79
2022/09/29 20:55:25;;;;;;;65.20;35.60;;;8.10;1.00;;;;;;10486725;28;20190;-81
2022/09/29 21:00:46;;;;;;;65.27;35.27;;;8.10;1.00;;;;;;10483747;28;20226;-79
2022/09/29 21:06:07;;;;;;;70.67;37.80;;;8.00;1.00;;;;;;10485262;28;20220;-80
2022/09/29 21:11:36;;;;;;;76.53;40.00;;;8.00;1.00;;;;;;10483521;28;20221;-82
2022/09/29 21:16:58;;;;;;;62.13;34.87;;;7.90;1.00;;;;;;10482215;28;20428;-81
2022/09/29 21:22:19;;;;;;;56.63;33.20;;;7.80;1.00;;;;;;10466853;28;20203;-81
2022/09/29 21:27:42;;;;;;;63.97;32.03;;;7.80;1.00;;;;;;10481984;28;20273;-81
2022/09/29 21:33:03;;;;;;;58.47;27.87;;;7.80;1.00;;;;;;10472740;28;20220;-80
2022/09/29 21:38:29;;;;;;;48.27;24.00;;;7.70;1.00;;;;;;10483511;28;20195;-79
2022/09/29 21:43:53;;;;;;;53.00;23.53;;;7.70;1.00;;;;;;10455776;28;20214;-82
2022/09/29 21:49:16;;;;;;;44.60;23.33;;;7.60;1.00;;;;;;10483714;28;20394;-85
2022/09/29 21:54:38;;;;;;;40.80;23.23;;;7.50;1.00;;;;;;10465993;28;20216;-82
2022/09/29 21:59:59;;;;;;;37.57;20.93;;;;;;;;;;10481460;28;20487;-80
2022/09/29 22:05:21;;;;;;;29.67;17.33;;;7.40;1.00;;;;;;10421766;28;20248;-79
2022/09/29 22:10:44;;;;;;;28.77;17.60;;;7.50;1.00;;;;;;10424647;28;20230;-83
2022/09/29 22:16:08;;;;;;;32.43;17.10;;;;;;;;;;10461137;28;20188;-84
2022/09/29 22:21:30;;;;;;;29.70;16.03;;;;;;;;;;10494781;28;20192;-87
2022/09/29 22:26:52;;;;;;;29.97;18.33;;;;;;;;;;10495391;28;20189;-84
2022/09/29 22:32:13;;;;;;;29.23;16.27;;;;;;;;;;10471824;28;20235;-85
2022/09/29 22:37:34;;;;;;;24.63;15.20;;;;;;;;;;10460894;28;20233;-84
2022/09/29 22:42:56;;;;;;;25.57;14.13;;;;;;;;;;10464716;28;20276;-83
2022/09/29 22:48:18;;;;;;;26.37;13.27;;;7.00;99.90;;;;;;10492150;28;20242;-86
2022/09/29 22:53:40;;;;;;;25.73;13.50;;;7.10;1.00;;;;;;10477942;28;20219;-87
2022/09/29 22:59:03;;;;;;;24.53;14.03;;;7.10;99.90;;;;;;10492197;28;20189;-79
2022/09/29 23:04:25;;;;;;;48.17;26.07;;;;;;;;;;10477902;28;20388;-86
2022/09/29 23:09:46;;;;;;;46.97;28.53;;;7.00;1.00;;;;;;10463990;28;20257;-85
2022/09/29 23:15:08;;;;;;;45.67;25.77;;;6.90;1.00;;;;;;10463653;28;20219;-83
2022/09/29 23:20:30;;;;;;;44.90;25.50;;;6.90;99.90;;;;;;10479774;28;20184;-84
2022/09/29 23:25:51;;;;;;;54.47;26.97;;;6.80;1.00;;;;;;10475110;28;20220;-86
2022/09/29 23:31:13;;;;;;;54.50;28.70;;;;;;;;;;10449774;28;20242;-85
2022/09/29 23:36:35;;;;;;;58.73;32.00;;;;;;;;;;10436780;28;20385;-85
2022/09/29 23:41:57;;;;;;;59.93;32.87;;;;;;;;;;10437112;28;20396;-78
2022/09/29 23:47:18;;;;;;;54.23;30.17;;;;;;;;;;10440156;28;20232;-77
2022/09/29 23:52:41;;;;;;;54.20;30.43;;;;;;;;;;10475205;28;20226;-78
2022/09/29 23:58:03;;;;;;;58.20;30.57;;;;;;;;;;10470012;28;20203;-78
